Time;durP1;ratioP1;P1;durP2;ratioP2;P2;SDS_P1;SDS_P2;PMS_P1;PMS_P2;Temp;Humidity;BMP_temperature;BMP_pressure;BME280_temperature;BME280_humidity;BME280_pressure;Samples;Min_cycle;Max_cycle;Signal;HPM_P1;HPM_P2
2023/04/12 00:02:15;;;;;;;4.70;2.83;;;;;;;19.82;53.74;97067.34;4943294;29;20212;-27
2023/04/12 00:04:41;;;;;;;4.67;3.13;;;;;;;19.85;53.18;97062.34;4954610;29;20211;-27
2023/04/12 00:07:09;;;;;;;4.63;3.30;;;;;;;19.86;53.29;97060.63;4950034;28;20202;-28
2023/04/12 00:09:36;;;;;;;3.33;2.80;;;;;;;19.86;53.46;97055.53;4948276;29;20200;-28
2023/04/12 00:12:04;;;;;;;6.53;3.07;;;;;;;19.87;53.28;97054.72;4944390;29;20280;-28
2023/04/12 00:14:31;;;;;;;4.77;3.07;;;;;;;19.83;53.26;97048.66;4947735;28;20227;-27
2023/04/12 00:16:58;;;;;;;5.07;3.20;;;;;;;19.81;53.45;97042.66;4944504;29;20288;-29
2023/04/12 00:19:26;;;;;;;4.13;2.60;;;;;;;19.87;53.11;97044.53;4943677;29;20201;-29
2023/04/12 00:21:53;;;;;;;4.97;3.00;;;;;;;19.87;53.16;97039.44;4954357;29;20548;-27
2023/04/12 00:24:19;;;;;;;4.53;2.50;;;;;;;19.85;53.34;97041.06;4941324;29;20653;-29
2023/04/12 00:26:46;;;;;;;5.30;3.03;;;;;;;19.86;53.00;97033.44;4943135;28;20282;-27
2023/04/12 00:29:13;;;;;;;3.57;2.90;;;;;;;19.75;53.21;97009.34;4949399;28;20663;-28
2023/04/12 00:31:39;;;;;;;5.10;3.07;;;;;;;19.86;52.91;97024.94;4951104;29;20232;-28
2023/04/12 00:34:06;;;;;;;4.03;2.90;;;;;;;19.87;52.78;97026.69;4947518;28;20207;-27
2023/04/12 00:36:32;;;;;;;3.10;2.80;;;;;;;19.51;52.79;96969.56;4939456;29;20205;-27
2023/04/12 00:38:59;;;;;;;4.93;3.17;;;;;;;19.86;53.10;97027.47;4952775;28;20220;-29
2023/04/12 00:41:26;;;;;;;4.83;2.93;;;;;;;19.79;52.90;97007.75;4949631;29;20220;-28
2023/04/12 00:43:52;;;;;;;3.00;2.50;;;;;;;19.86;52.93;97025.81;4951859;29;20217;-28
2023/04/12 00:46:19;;;;;;;3.53;2.57;;;;;;;19.85;52.95;97019.00;4947916;28;20201;-37
2023/04/12 00:48:47;;;;;;;4.20;2.87;;;;;;;19.84;52.47;97018.94;4943781;29;20295;-29
2023/04/12 00:51:13;;;;;;;4.27;2.47;;;;;;;19.77;52.83;97005.16;4936199;29;20628;-29
2023/04/12 00:53:41;;;;;;;6.03;3.17;;;;;;;19.85;52.83;97007.91;4920797;28;20222;-28
2023/04/12 00:56:10;;;;;;;3.40;2.87;;;;;;;19.85;52.86;97007.91;4942987;29;20280;-28
2023/04/12 00:58:37;;;;;;;4.60;3.23;;;;;;;19.84;53.24;97004.50;4925644;29;20291;-28
2023/04/12 01:01:04;;;;;;;3.10;2.73;;;;;;;19.78;52.88;96994.13;4950675;28;20216;-28
2023/04/12 01:03:31;;;;;;;4.07;2.97;;;;;;;19.86;52.82;96999.44;4939066;29;20686;-28
2023/04/12 01:06:28;;;;;;;3.60;2.93;;;;;;;19.85;52.91;97007.91;4935514;29;20196;-27
2023/04/12 01:09:07;;;;;;;3.97;3.00;;;;;;;19.85;52.77;97002.81;4930851;29;20698;-29
2023/04/12 01:12:05;;;;;;;3.77;2.70;;;;;;;19.76;52.66;96969.41;4921409;29;20230;-28
2023/04/12 01:14:55;;;;;;;3.63;2.50;;;;;;;19.84;52.92;96988.34;4929684;29;20205;-29
2023/04/12 01:17:23;;;;;;;3.53;2.70;;;;;;;19.83;52.67;96978.94;4923596;29;20201;-28
2023/04/12 01:20:08;;;;;;;3.87;3.00;;;;;;;19.85;52.62;96977.31;4927251;29;20319;-28
2023/04/12 01:23:13;;;;;;;4.53;3.00;;;;;;;19.85;52.67;96980.75;4923189;29;20204;-36
2023/04/12 01:26:31;;;;;;;4.57;3.00;;;;;;;19.79;52.60;96972.91;4934026;29;20259;-27
2023/04/12 01:29:03;;;;;;;3.23;2.70;;;;;;;19.85;52.55;96969.66;4893787;29;20217;-27
2023/04/12 01:31:30;;;;;;;4.03;3.10;;;;;;;19.85;52.15;96964.56;4911100;29;20224;-28
2023/04/12 01:33:56;;;;;;;3.50;2.90;;;;;;;19.82;52.49;96959.38;4925246;29;20276;-28
2023/04/12 01:36:26;;;;;;;4.30;3.27;;;;;;;19.85;52.59;96962.88;4915923;29;20200;-29
2023/04/12 01:38:52;;;;;;;3.37;2.50;;;;;;;19.85;52.43;96957.78;4921062;29;20324;-28
2023/04/12 01:41:19;;;;;;;4.00;2.93;;;;;;;19.85;52.40;96968.00;4936237;28;20238;-27
2023/04/12 01:43:46;;;;;;;2.93;2.63;;;;;;;19.80;52.42;96946.59;4935643;29;20386;-31
2023/04/12 01:46:15;;;;;;;3.83;2.90;;;;;;;19.82;52.37;96959.38;4953302;29;20215;-27
2023/04/12 01:48:49;;;;;;;3.97;2.90;;;;;;;19.86;52.28;96964.59;4953005;29;20219;-27
2023/04/12 01:51:39;;;;;;;3.83;2.67;;;;;;;19.82;52.29;96959.38;4948250;28;20438;-37
2023/04/12 01:54:29;;;;;;;4.17;2.93;;;;;;;19.86;52.45;96959.50;4907397;29;20212;-28
2023/04/12 01:56:57;;;;;;;3.97;2.80;;;;;;;19.75;52.32;96948.16;4944677;28;20210;-27
2023/04/12 01:59:30;;;;;;;4.80;3.10;;;;;;;19.86;52.49;96959.50;4931199;29;20236;-28
2023/04/12 02:01:57;;;;;;;3.37;2.57;;;;;;;19.84;52.29;96950.94;4926666;29;20200;-30
2023/04/12 02:04:26;;;;;;;3.20;2.80;;;;;;;19.83;52.47;96954.31;4942384;29;20204;-29
2023/04/12 02:06:53;;;;;;;4.17;2.80;;;;;;;19.76;52.36;96938.81;4923364;29;20204;-28
2023/04/12 02:09:21;;;;;;;5.03;3.10;;;;;;;19.84;52.32;96947.53;4938113;29;20298;-29
2023/04/12 02:11:48;;;;;;;3.07;2.67;;;;;;;19.86;52.40;96956.97;4954021;28;20703;-28
2023/04/12 02:14:14;;;;;;;3.63;2.67;;;;;;;19.85;52.29;96955.25;4946441;29;20211;-27
2023/04/12 02:16:43;;;;;;;3.37;2.60;;;;;;;19.84;52.34;96948.38;4956464;29;20234;-27
2023/04/12 02:19:10;;;;;;;3.13;2.60;;;;;;;19.85;52.34;96946.72;4945712;29;20211;-28
2023/04/12 02:21:41;;;;;;;3.10;2.63;;;;;;;19.85;52.36;96962.00;4947758;28;20640;-29
2023/04/12 02:24:08;;;;;;;3.67;2.77;;;;;;;19.85;52.17;96946.72;4951601;28;20686;-27
2023/04/12 02:26:36;;;;;;;4.00;2.77;;;;;;;19.85;52.25;96951.81;4927245;29;20297;-30
2023/04/12 02:29:03;;;;;;;2.93;2.50;;;;;;;19.85;52.21;96950.13;4950831;28;20676;-28
2023/04/12 02:31:30;;;;;;;4.10;2.73;;;;;;;19.80;52.22;96938.06;4949113;29;20695;-28
2023/04/12 02:33:57;;;;;;;4.13;2.43;;;;;;;19.84;52.67;96939.91;4939012;28;20289;-27
2023/04/12 02:36:24;;;;;;;2.87;2.40;;;;;;;19.84;52.41;96935.66;4956449;28;20200;-27
2023/04/12 02:38:50;;;;;;;3.57;2.87;;;;;;;19.83;52.56;96933.06;4951139;29;20694;-29
2023/04/12 02:41:17;;;;;;;3.07;2.50;;;;;;;19.85;52.10;96939.06;4948984;29;20216;-28
2023/04/12 02:43:44;;;;;;;2.97;2.50;;;;;;;19.84;52.12;96930.53;4943102;29;20821;-27
2023/04/12 02:46:21;;;;;;;2.73;2.37;;;;;;;19.85;52.06;96931.41;4947435;29;20295;-27
2023/04/12 02:48:48;;;;;;;2.60;2.40;;;;;;;19.86;52.07;96940.78;4939123;28;20196;-28
2023/04/12 02:51:15;;;;;;;3.20;2.60;;;;;;;19.84;52.21;96943.28;4935094;29;20221;-28
2023/04/12 02:53:41;;;;;;;3.13;2.60;;;;;;;19.85;52.19;96937.41;4947323;29;20691;-28
2023/04/12 02:56:08;;;;;;;3.10;2.80;;;;;;;19.84;52.03;96924.59;4944104;29;20205;-28
2023/04/12 02:58:35;;;;;;;3.17;2.80;;;;;;;19.86;52.21;96930.59;4945389;29;20201;-27
2023/04/12 03:01:06;;;;;;;3.27;2.83;;;;;;;19.84;52.13;96929.69;4946367;29;20235;-29
2023/04/12 03:03:34;;;;;;;2.63;2.43;;;;;;;19.79;52.10;96911.72;4950880;29;20271;-28
2023/04/12 03:06:00;;;;;;;4.23;2.70;;;;;;;19.76;51.98;96905.69;4950204;28;20670;-29
2023/04/12 03:08:27;;;;;;;2.73;2.50;;;;;;;19.86;52.30;96915.28;4944883;28;20201;-28
2023/04/12 03:10:54;;;;;;;3.53;2.73;;;;;;;19.87;52.19;96917.03;4946863;28;20239;-28
2023/04/12 03:13:20;;;;;;;2.83;2.50;;;;;;;19.87;52.15;96909.38;4946504;29;20208;-27
2023/04/12 03:15:48;;;;;;;3.30;3.00;;;;;;;19.87;52.32;96914.47;4941723;29;20216;-28
2023/04/12 03:18:16;;;;;;;2.77;2.40;;;;;;;19.86;51.98;96915.28;4951962;29;20272;-29
2023/04/12 03:20:42;;;;;;;3.23;2.50;;;;;;;19.86;51.74;96905.97;4948434;28;20232;-28
2023/04/12 03:23:12;;;;;;;3.30;2.77;;;;;;;19.87;52.06;96906.84;4943175;29;20223;-27
2023/04/12 03:25:39;;;;;;;3.83;2.77;;;;;;;19.85;51.96;96911.03;4942307;29;20205;-27
2023/04/12 03:28:07;;;;;;;4.03;2.83;;;;;;;19.87;51.77;96911.94;4952302;28;20200;-30
2023/04/12 03:30:33;;;;;;;5.03;2.60;;;;;;;19.86;51.67;96911.06;4949106;28;20216;-27
2023/04/12 03:33:00;;;;;;;3.23;2.60;;;;;;;19.81;52.03;96899.03;4945191;29;20597;-27
2023/04/12 03:35:26;;;;;;;2.63;2.43;;;;;;;19.68;51.91;96877.44;4944148;28;20201;-27
2023/04/12 03:37:53;;;;;;;2.53;2.33;;;;;;;19.85;52.10;96908.47;4951432;29;20224;-28
2023/04/12 03:40:20;;;;;;;2.70;2.50;;;;;;;19.85;51.83;96901.69;4950168;28;20224;-29
2023/04/12 03:42:46;;;;;;;2.60;2.37;;;;;;;19.86;51.75;96905.09;4937264;29;20259;-28
2023/04/12 03:45:13;;;;;;;5.10;2.80;;;;;;;19.84;51.93;96892.28;4950821;28;20303;-28
2023/04/12 03:47:39;;;;;;;3.47;2.27;;;;;;;19.85;51.67;96888.94;4943772;28;20686;-30
2023/04/12 03:50:06;;;;;;;2.93;2.40;;;;;;;19.85;51.75;96875.31;4928200;29;20599;-29
2023/04/12 03:52:38;;;;;;;3.73;2.60;;;;;;;19.76;51.90;96869.97;4940063;29;20224;-36
2023/04/12 03:55:06;;;;;;;3.93;2.80;;;;;;;19.85;52.01;96875.31;4945021;29;20208;-31
2023/04/12 03:57:33;;;;;;;2.90;2.60;;;;;;;19.85;51.76;96871.09;4951255;29;20200;-29
2023/04/12 04:00:00;;;;;;;2.60;2.40;;;;;;;19.84;51.89;96876.16;4952075;28;20250;-27
2023/04/12 04:02:27;;;;;;;3.67;2.30;;;;;;;19.82;52.16;96858.28;4943472;28;20747;-28
2023/04/12 04:04:54;;;;;;;3.00;2.43;;;;;;;19.82;51.89;96853.16;4930000;29;20319;-28
2023/04/12 04:07:21;;;;;;;2.97;2.37;;;;;;;19.78;51.84;96850.50;4950709;29;20287;-29
2023/04/12 04:09:48;;;;;;;3.03;2.73;;;;;;;19.80;51.58;96849.72;4953092;28;20319;-29
2023/04/12 04:12:15;;;;;;;2.83;2.53;;;;;;;19.84;51.56;96855.75;4932376;29;20233;-29
2023/04/12 04:14:42;;;;;;;2.90;2.60;;;;;;;19.79;51.82;96852.22;4945045;28;20213;-27
2023/04/12 04:17:08;;;;;;;3.07;2.20;;;;;;;19.82;52.39;96853.16;4943270;29;20232;-29
2023/04/12 04:19:35;;;;;;;3.60;2.83;;;;;;;19.72;51.96;96837.59;4947880;28;20410;-27
2023/04/12 04:22:01;;;;;;;2.90;2.40;;;;;;;19.76;51.46;96845.38;4944330;29;20554;-28
2023/04/12 04:24:28;;;;;;;2.93;2.50;;;;;;;19.85;51.81;96858.34;4942087;29;20283;-27
2023/04/12 04:26:55;;;;;;;2.70;2.50;;;;;;;19.84;51.77;96848.09;4953387;28;20205;-27
2023/04/12 04:29:22;;;;;;;4.13;2.60;;;;;;;19.85;51.88;96843.03;4948644;29;20205;-29
2023/04/12 04:31:49;;;;;;;6.13;2.80;;;;;;;19.85;51.94;96849.81;4953334;29;20232;-28
2023/04/12 04:34:17;;;;;;;8.23;2.50;;;;;;;19.84;51.61;96841.31;4952142;29;20200;-28
2023/04/12 04:36:45;;;;;;;5.00;2.43;;;;;;;19.85;51.64;96840.50;4948147;29;20210;-29
2023/04/12 04:39:12;;;;;;;8.90;2.90;;;;;;;19.86;51.46;96831.13;4943436;28;20414;-31
2023/04/12 04:41:40;;;;;;;9.47;2.80;;;;;;;19.80;51.34;96831.00;4937331;28;20616;-29
2023/04/12 04:44:08;;;;;;;7.03;2.40;;;;;;;19.82;51.36;96830.22;4937413;28;20222;-29
2023/04/12 04:46:36;;;;;;;5.03;2.40;;;;;;;19.84;51.33;96833.66;4938493;29;20224;-29
2023/04/12 04:49:04;;;;;;;5.03;2.67;;;;;;;19.77;51.34;96813.06;4939425;29;20200;-28
2023/04/12 04:51:30;;;;;;;6.40;2.47;;;;;;;19.82;51.44;96831.91;4946888;29;20232;-27
2023/04/12 04:53:57;;;;;;;4.97;2.43;;;;;;;19.86;51.29;96833.69;4947903;28;20698;-28
2023/04/12 04:56:24;;;;;;;3.90;2.67;;;;;;;19.82;51.12;96819.16;4942696;29;20205;-29
2023/04/12 04:58:51;;;;;;;3.60;2.63;;;;;;;19.77;50.95;96818.16;4943297;28;20722;-29
2023/04/12 05:01:19;;;;;;;5.00;2.57;;;;;;;19.80;51.28;96803.81;4951364;28;20602;-29
2023/04/12 05:03:48;;;;;;;3.90;2.50;;;;;;;19.85;51.15;96809.91;4950010;29;20271;-27
2023/04/12 05:06:16;;;;;;;4.17;2.60;;;;;;;19.85;51.21;96803.94;4942888;29;20217;-29
2023/04/12 05:08:43;;;;;;;3.80;2.57;;;;;;;19.84;50.73;96803.06;4941438;29;20660;-29
2023/04/12 05:11:10;;;;;;;3.90;2.53;;;;;;;19.83;50.91;96801.34;4950383;28;20232;-28
2023/04/12 05:13:37;;;;;;;5.27;2.80;;;;;;;19.81;50.94;96800.44;4928265;29;20251;-27
2023/04/12 05:16:07;;;;;;;4.00;2.50;;;;;;;19.78;50.54;96799.50;4937901;29;20283;-27
2023/04/12 05:18:33;;;;;;;2.67;2.30;;;;;;;19.82;50.39;96807.28;4944989;28;20594;-29
2023/04/12 05:21:04;;;;;;;3.57;2.30;;;;;;;19.73;50.22;96784.09;4938935;29;20347;-28
2023/04/12 05:23:35;;;;;;;5.20;2.90;;;;;;;19.81;50.56;96800.44;4945533;29;20200;-29
2023/04/12 05:26:02;;;;;;;3.00;2.50;;;;;;;19.76;50.53;96784.19;4944717;29;20722;-27
2023/04/12 05:28:28;;;;;;;3.67;2.13;;;;;;;19.73;50.58;96773.03;4949784;28;20663;-30
2023/04/12 05:30:55;;;;;;;4.53;2.30;;;;;;;19.80;50.60;96782.53;4943991;29;20228;-29
2023/04/12 05:33:22;;;;;;;3.40;2.40;;;;;;;19.79;50.97;96783.38;4934632;29;20292;-27
2023/04/12 05:35:48;;;;;;;4.13;2.00;;;;;;;19.77;50.84;96772.28;4943182;28;20287;-27
2023/04/12 05:38:15;;;;;;;4.10;2.20;;;;;;;19.80;50.54;96777.44;4941310;28;20264;-34
2023/04/12 05:40:42;;;;;;;3.27;2.43;;;;;;;19.79;49.64;96770.63;4944685;28;20224;-28
2023/04/12 05:43:12;;;;;;;4.83;2.13;;;;;;;19.78;49.66;96764.66;4947072;29;20200;-27
2023/04/12 05:45:40;;;;;;;3.43;2.50;;;;;;;19.78;49.50;96763.81;4951562;28;20243;-27
2023/04/12 05:48:07;;;;;;;3.37;2.07;;;;;;;19.75;49.35;96751.00;4943265;29;20212;-28
2023/04/12 05:50:34;;;;;;;3.73;2.50;;;;;;;19.77;49.05;96756.97;4940723;29;20577;-27
2023/04/12 05:53:00;;;;;;;3.53;2.57;;;;;;;19.76;48.83;96755.25;4944305;28;20255;-27
2023/04/12 05:55:28;;;;;;;5.53;2.50;;;;;;;19.69;48.81;96735.56;4941093;29;20524;-28
2023/04/12 05:57:54;;;;;;;3.60;2.40;;;;;;;19.76;48.77;96751.03;4942611;29;20646;-28
2023/04/12 06:00:22;;;;;;;3.33;2.30;;;;;;;19.74;49.41;96746.72;4949658;28;20284;-29
2023/04/12 06:02:49;;;;;;;2.90;2.37;;;;;;;19.62;49.75;96731.13;4950932;28;20228;-28
2023/04/12 06:05:16;;;;;;;2.93;2.17;;;;;;;19.74;49.99;96747.56;4935747;29;20720;-27
2023/04/12 06:07:47;;;;;;;3.20;2.10;;;;;;;19.74;50.19;96751.81;4952909;29;20212;-29
2023/04/12 06:10:15;;;;;;;4.80;2.50;;;;;;;19.70;50.40;96738.16;4936342;29;20224;-28
2023/04/12 06:12:41;;;;;;;3.17;2.10;;;;;;;19.74;50.40;96739.06;4952896;28;20296;-27
2023/04/12 06:15:08;;;;;;;4.27;2.30;;;;;;;19.75;50.45;96739.09;4944234;29;20202;-27
2023/04/12 06:17:35;;;;;;;3.53;2.40;;;;;;;19.75;50.54;96748.44;4944876;29;20260;-28
2023/04/12 06:20:06;;;;;;;5.50;2.50;;;;;;;19.75;50.60;96740.81;4951305;28;20223;-27
2023/04/12 06:22:32;;;;;;;2.20;2.00;;;;;;;19.76;50.73;96729.78;4945285;29;20207;-27
2023/04/12 06:24:59;;;;;;;2.77;2.37;;;;;;;19.71;50.83;96729.66;4944168;29;20235;-27
2023/04/12 06:27:26;;;;;;;3.67;2.13;;;;;;;19.75;50.19;96728.06;4941755;29;20291;-28
2023/04/12 06:29:52;;;;;;;2.67;1.93;;;;;;;19.75;50.41;96728.06;4948795;28;20290;-27
2023/04/12 06:32:19;;;;;;;2.87;2.13;;;;;;;19.72;50.58;96723.72;4941697;29;20225;-29
2023/04/12 06:34:45;;;;;;;3.50;2.23;;;;;;;19.75;50.33;96725.50;4917468;29;20242;-28
2023/04/12 06:37:12;;;;;;;3.73;2.30;;;;;;;19.73;50.33;96722.94;4941076;29;20263;-27
2023/04/12 06:39:39;;;;;;;3.63;2.20;;;;;;;19.75;50.16;96720.41;4940139;28;20295;-27
2023/04/12 06:42:05;;;;;;;2.57;2.00;;;;;;;19.75;50.57;96725.50;4949320;29;20211;-28
2023/04/12 06:44:32;;;;;;;4.07;2.50;;;;;;;19.32;50.52;96646.28;4934010;29;20280;-28
2023/04/12 06:46:59;;;;;;;6.20;2.73;;;;;;;19.74;49.34;96711.88;4943991;29;20201;-27
2023/04/12 06:49:25;;;;;;;4.00;2.10;;;;;;;19.71;49.95;96706.72;4947581;28;20200;-27
2023/04/12 06:51:52;;;;;;;5.27;2.53;;;;;;;19.72;49.90;96705.03;4944413;29;20208;-27
2023/04/12 06:54:19;;;;;;;4.67;2.30;;;;;;;19.71;50.06;96705.84;4952897;29;20255;-34
2023/04/12 06:56:45;;;;;;;4.50;2.30;;;;;;;19.72;50.30;96708.44;4940628;29;20292;-27
2023/04/12 06:59:12;;;;;;;2.43;2.10;;;;;;;19.72;49.88;96699.94;4929159;29;20240;-28
2023/04/12 07:01:38;;;;;;;3.30;2.10;;;;;;;19.72;50.52;96703.34;4945522;28;20231;-28
2023/04/12 07:04:07;;;;;;;3.67;2.07;;;;;;;19.63;50.35;96679.34;4956032;29;20213;-29
2023/04/12 07:06:34;;;;;;;2.30;2.10;;;;;;;19.43;50.17;96639.78;4951866;29;20640;-28
2023/04/12 07:09:00;;;;;;;3.10;2.33;;;;;;;19.73;50.83;96688.91;4945736;28;20211;-28
2023/04/12 07:11:27;;;;;;;3.53;2.07;;;;;;;19.74;50.68;96695.72;4939607;29;20233;-28
2023/04/12 07:13:54;;;;;;;3.20;2.20;;;;;;;19.71;50.43;96683.78;4944785;29;20225;-29
2023/04/12 07:16:21;;;;;;;2.37;2.10;;;;;;;19.73;51.07;96684.69;4952441;29;20406;-27
2023/04/12 07:18:48;;;;;;;3.43;2.13;;;;;;;19.74;50.68;96677.88;4941402;29;20205;-29
2023/04/12 07:21:16;;;;;;;3.37;2.10;;;;;;;19.73;50.88;96678.72;4953708;28;20615;-29
2023/04/12 07:23:43;;;;;;;3.40;2.30;;;;;;;19.72;50.28;96666.81;4948695;29;20209;-27
2023/04/12 07:26:10;;;;;;;4.70;2.67;;;;;;;19.72;49.46;96662.56;4952087;28;20208;-28
2023/04/12 07:28:37;;;;;;;5.03;2.03;;;;;;;19.69;49.53;96654.84;4943771;29;20235;-28
2023/04/12 07:31:05;;;;;;;3.77;2.13;;;;;;;19.70;50.15;96653.16;4946658;28;20260;-27
2023/04/12 07:33:34;;;;;;;4.97;2.20;;;;;;;19.72;50.20;96652.34;4954009;29;20302;-28
2023/04/12 07:36:01;;;;;;;3.10;2.30;;;;;;;19.71;50.41;96648.09;4954476;28;20204;-28
2023/04/12 07:38:28;;;;;;;2.93;2.00;;;;;;;19.69;50.86;96634.44;4951512;29;20211;-28
2023/04/12 07:40:55;;;;;;;4.00;2.07;;;;;;;19.70;50.43;96631.09;4939070;29;20316;-28
2023/04/12 07:43:21;;;;;;;2.27;1.90;;;;;;;19.68;50.43;96629.31;4953713;28;20288;-29
2023/04/12 07:45:48;;;;;;;2.20;1.60;;;;;;;19.62;50.42;96624.06;4940711;29;20715;-28
2023/04/12 07:48:15;;;;;;;2.90;1.90;;;;;;;19.73;50.92;96643.91;4941376;29;20205;-28
2023/04/12 07:50:42;;;;;;;2.90;2.13;;;;;;;19.71;49.97;96629.38;4935899;29;20233;-29
2023/04/12 07:53:18;;;;;;;2.10;1.90;;;;;;;19.72;50.41;96623.47;4940813;29;20232;-27
2023/04/12 07:55:46;;;;;;;2.90;2.27;;;;;;;19.72;50.39;96621.75;4946683;29;20211;-29
2023/04/12 07:58:12;;;;;;;2.40;1.90;;;;;;;19.73;50.42;96617.53;4940568;29;20587;-28
2023/04/12 08:00:39;;;;;;;2.37;2.00;;;;;;;19.72;49.80;96613.28;4954286;28;20750;-27
2023/04/12 08:03:06;;;;;;;2.30;1.97;;;;;;;19.64;50.50;96605.47;4946615;28;20204;-30
2023/04/12 08:05:33;;;;;;;2.07;1.90;;;;;;;19.72;50.53;96619.22;4946854;28;20291;-27
2023/04/12 08:08:00;;;;;;;2.20;1.97;;;;;;;19.60;50.37;96590.06;4946393;28;20668;-28
2023/04/12 08:10:26;;;;;;;2.53;1.97;;;;;;;19.71;50.41;96606.44;4949001;28;20228;-30
2023/04/12 08:12:53;;;;;;;2.20;2.00;;;;;;;19.72;50.58;96606.47;4945471;29;20307;-27
2023/04/12 08:15:19;;;;;;;2.30;2.10;;;;;;;19.59;50.45;96585.78;4951726;28;20215;-29
2023/04/12 08:17:46;;;;;;;2.20;1.80;;;;;;;19.72;50.83;96597.97;4943037;28;20296;-27
2023/04/12 08:20:16;;;;;;;2.43;2.10;;;;;;;19.71;50.65;96597.13;4936919;29;20221;-30
2023/04/12 08:22:44;;;;;;;2.13;1.93;;;;;;;19.73;50.68;96597.16;4935408;29;20204;-27
2023/04/12 08:25:10;;;;;;;4.37;1.87;;;;;;;19.61;50.93;96569.72;4950747;28;20231;-27
2023/04/12 08:27:38;;;;;;;2.13;1.90;;;;;;;19.73;50.77;96592.03;4946695;29;20209;-27
2023/04/12 08:30:06;;;;;;;3.07;2.00;;;;;;;19.73;50.73;96581.84;4953243;28;20310;-27
2023/04/12 08:32:33;;;;;;;2.77;1.97;;;;;;;19.70;50.85;96579.22;4953903;28;20228;-30
2023/04/12 08:35:00;;;;;;;3.57;2.10;;;;;;;19.67;50.74;96579.16;4941182;28;20204;-29
2023/04/12 08:37:27;;;;;;;3.70;2.00;;;;;;;19.72;50.73;96580.97;4918399;29;20228;-27
2023/04/12 08:39:53;;;;;;;2.30;1.87;;;;;;;19.69;50.73;96570.72;4949169;28;20228;-27
2023/04/12 08:42:20;;;;;;;2.30;1.70;;;;;;;19.73;50.76;96579.31;4942397;29;20295;-28
2023/04/12 08:44:47;;;;;;;3.57;1.97;;;;;;;19.68;50.97;96561.34;4949905;29;20665;-30
2023/04/12 08:47:13;;;;;;;3.47;2.17;;;;;;;19.71;50.70;96563.09;4944425;29;20200;-27
2023/04/12 08:49:40;;;;;;;2.00;1.80;;;;;;;19.70;50.70;96551.19;4921817;29;20209;-38
2023/04/12 08:52:07;;;;;;;2.37;1.80;;;;;;;19.66;50.92;96545.16;4946360;28;20200;-27
2023/04/12 08:54:34;;;;;;;2.13;1.67;;;;;;;19.74;50.99;96558.94;4942878;29;20224;-27
2023/04/12 08:57:05;;;;;;;2.27;1.70;;;;;;;19.69;51.03;96542.69;4942396;29;20206;-27
2023/04/12 08:59:34;;;;;;;1.73;1.63;;;;;;;19.72;50.98;96544.44;4949606;29;20208;-27
2023/04/12 09:02:01;;;;;;;2.70;1.60;;;;;;;19.74;50.68;96538.53;4934583;29;20204;-27
2023/04/12 09:04:28;;;;;;;2.00;1.80;;;;;;;19.74;50.98;96533.44;4944481;29;20197;-28
2023/04/12 09:06:55;;;;;;;1.67;1.57;;;;;;;19.69;50.99;96527.38;4939076;29;20240;-27
2023/04/12 09:09:44;;;;;;;2.13;1.60;;;;;;;19.74;50.90;96532.56;4944705;29;20224;-28
2023/04/12 09:12:10;;;;;;;2.80;1.90;;;;;;;19.37;50.75;96474.91;4944267;29;20215;-28
2023/04/12 09:14:37;;;;;;;1.80;1.60;;;;;;;19.62;50.85;96505.16;4940899;29;20324;-27
2023/04/12 09:17:05;;;;;;;1.87;1.70;;;;;;;19.67;50.78;96523.97;4945087;29;20259;-29
2023/04/12 09:19:32;;;;;;;1.50;1.40;;;;;;;19.73;50.62;96511.34;4947454;29;20222;-27
2023/04/12 09:21:59;;;;;;;2.10;1.90;;;;;;;19.73;50.85;96511.34;4949802;29;20208;-27
2023/04/12 09:24:26;;;;;;;1.87;1.77;;;;;;;19.68;50.77;96489.13;4949505;28;20197;-27
2023/04/12 09:27:00;;;;;;;2.03;1.83;;;;;;;19.73;51.00;96484.97;4953219;28;20208;-28
2023/04/12 09:29:27;;;;;;;1.90;1.73;;;;;;;19.68;51.06;96467.06;4941116;29;20208;-28
2023/04/12 09:32:05;;;;;;;1.90;1.80;;;;;;;19.73;50.94;96479.88;4948417;28;20202;-27
2023/04/12 09:34:33;;;;;;;2.50;1.63;;;;;;;19.72;50.96;96471.38;4938031;29;20268;-27
2023/04/12 09:37:13;;;;;;;1.93;1.70;;;;;;;19.72;51.06;96473.91;4933036;29;20624;-28
2023/04/12 09:39:40;;;;;;;2.03;1.80;;;;;;;19.72;51.09;96490.94;4937682;29;20201;-28
2023/04/12 09:42:10;;;;;;;1.87;1.70;;;;;;;19.70;50.95;96480.69;4951939;28;20743;-27
2023/04/12 09:44:57;;;;;;;1.67;1.57;;;;;;;19.67;51.00;96467.88;4942485;29;20208;-27
2023/04/12 09:47:39;;;;;;;1.70;1.60;;;;;;;19.69;51.04;96460.28;4952998;28;20204;-27
2023/04/12 09:50:07;;;;;;;1.70;1.60;;;;;;;19.72;51.13;96473.91;4934883;29;20226;-29
2023/04/12 09:52:37;;;;;;;1.60;1.50;;;;;;;19.70;51.14;96478.16;4945792;29;20260;-34
2023/04/12 09:55:09;;;;;;;1.57;1.47;;;;;;;19.70;50.94;96467.09;4948930;28;20671;-30
2023/04/12 09:57:40;;;;;;;1.57;1.47;;;;;;;19.73;51.10;96459.50;4918586;29;20217;-27
2023/04/12 10:00:13;;;;;;;1.80;1.63;;;;;;;19.73;50.96;96456.94;4934696;29;20256;-28
2023/04/12 10:02:40;;;;;;;2.50;1.57;;;;;;;19.72;51.17;96457.78;4935344;28;20268;-29
2023/04/12 10:05:11;;;;;;;2.77;1.90;;;;;;;19.70;51.08;96452.66;4945555;29;20208;-30
2023/04/12 10:07:40;;;;;;;2.93;1.70;;;;;;;19.73;51.02;96462.03;4943923;29;20255;-27
2023/04/12 10:10:08;;;;;;;2.00;1.90;;;;;;;19.72;50.80;96439.94;4946086;28;20239;-29
2023/04/12 10:12:35;;;;;;;2.33;1.80;;;;;;;19.71;50.83;96433.97;4941821;29;20247;-29
2023/04/12 10:15:05;;;;;;;1.60;1.50;;;;;;;19.74;50.92;96435.72;4946033;29;20223;-27
2023/04/12 10:17:33;;;;;;;2.07;1.50;;;;;;;19.73;50.85;96431.47;4951467;28;20239;-29
2023/04/12 10:20:01;;;;;;;1.67;1.57;;;;;;;19.73;50.98;96445.06;4944134;28;20260;-27
2023/04/12 10:22:28;;;;;;;1.77;1.50;;;;;;;19.71;50.93;96416.13;4937590;29;20206;-27
2023/04/12 10:24:54;;;;;;;2.30;1.87;;;;;;;19.72;50.88;96407.66;4948022;29;20242;-27
2023/04/12 10:27:25;;;;;;;1.70;1.60;;;;;;;19.74;50.93;96411.09;4925079;29;20268;-27
2023/04/12 10:29:51;;;;;;;1.97;1.60;;;;;;;19.73;50.96;96394.09;4952164;28;20607;-28
2023/04/12 10:32:20;;;;;;;2.50;1.87;;;;;;;19.75;51.10;96401.75;4941603;28;20588;-27
2023/04/12 10:34:57;;;;;;;2.70;1.77;;;;;;;19.71;50.93;96371.94;4931616;29;20326;-28
2023/04/12 10:37:57;;;;;;;3.20;1.60;;;;;;;19.75;50.93;96386.47;4940453;28;20664;-28
2023/04/12 10:40:23;;;;;;;2.20;1.60;;;;;;;19.75;50.96;96391.56;4942656;29;20224;-27
2023/04/12 10:43:22;;;;;;;2.27;1.57;;;;;;;19.74;50.88;96395.81;4945040;28;20208;-28
2023/04/12 10:45:49;;;;;;;2.00;1.80;;;;;;;19.75;50.90;96391.56;4945066;29;20272;-27
2023/04/12 10:48:37;;;;;;;2.00;1.70;;;;;;;19.74;51.01;96380.50;4952523;28;20671;-27
2023/04/12 10:51:29;;;;;;;1.87;1.60;;;;;;;19.74;50.83;96380.50;4956181;28;20259;-29
2023/04/12 10:54:17;;;;;;;2.10;1.60;;;;;;;19.74;51.20;96377.09;4941229;29;20225;-28
2023/04/12 10:56:44;;;;;;;1.50;1.40;;;;;;;19.74;50.89;96369.44;4927716;29;20237;-28
2023/04/12 10:59:12;;;;;;;2.63;1.90;;;;;;;19.75;50.90;96360.97;4947671;29;20208;-29
2023/04/12 11:01:39;;;;;;;1.70;1.50;;;;;;;19.73;50.82;96357.53;4939484;29;20228;-27
2023/04/12 11:04:19;;;;;;;2.07;1.60;;;;;;;19.73;50.91;96360.97;4947832;29;20659;-27
2023/04/12 11:07:05;;;;;;;2.17;1.87;;;;;;;19.75;50.92;96358.44;4941956;29;20205;-27
2023/04/12 11:09:44;;;;;;;2.20;1.70;;;;;;;19.72;51.01;96348.19;4943889;28;20235;-32
2023/04/12 11:12:14;;;;;;;2.23;1.70;;;;;;;19.74;50.82;96349.06;4952882;29;20556;-27
2023/04/12 11:14:50;;;;;;;3.20;1.90;;;;;;;19.72;50.84;96343.09;4944408;28;20316;-28
2023/04/12 11:17:16;;;;;;;2.60;1.73;;;;;;;19.75;50.75;96345.69;4943762;29;20201;-28
2023/04/12 11:19:54;;;;;;;2.20;1.63;;;;;;;19.75;51.03;96343.13;4944450;28;20554;-28
2023/04/12 11:22:23;;;;;;;8.57;1.60;;;;;;;19.75;51.07;96326.13;4943709;29;20582;-27
2023/04/12 11:24:51;;;;;;;2.07;1.80;;;;;;;19.75;50.91;96326.13;4954729;28;20197;-28
2023/04/12 11:27:19;;;;;;;2.70;1.93;;;;;;;19.75;50.90;96328.69;4939428;29;20223;-27
2023/04/12 11:29:48;;;;;;;2.23;1.93;;;;;;;19.76;51.28;96327.88;4936647;29;20204;-28
2023/04/12 11:32:14;;;;;;;2.93;2.10;;;;;;;19.75;50.96;96336.31;4940214;29;20215;-28
2023/04/12 11:34:43;;;;;;;2.70;2.23;;;;;;;19.76;51.49;96329.56;4952252;28;20224;-27
2023/04/12 11:37:10;;;;;;;2.90;2.10;;;;;;;19.75;51.58;96338.03;4953144;28;20200;-27
2023/04/12 11:39:41;;;;;;;3.90;1.93;;;;;;;19.68;51.34;96326.88;4940496;29;20890;-28
2023/04/12 11:42:15;;;;;;;2.13;1.97;;;;;;;19.72;51.31;96331.19;4938574;29;20291;-27
2023/04/12 11:44:43;;;;;;;4.20;2.37;;;;;;;19.75;51.37;96330.41;4942541;29;20284;-28